createdAt,value
2023-10-15T00:04:24.521Z,5.47
2023-10-15T00:09:32.072Z,4.38
2023-10-15T00:14:38.530Z,5.40
2023-10-15T00:19:43.929Z,5.30
2023-10-15T00:24:49.923Z,5.00
2023-10-15T00:29:55.576Z,5.38
2023-10-15T00:34:59.959Z,5.72
2023-10-15T00:40:06.820Z,6.53
2023-10-15T00:45:14.999Z,6.22
2023-10-15T00:50:19.528Z,7.13
2023-10-15T00:55:26.218Z,5.75
2023-10-15T01:00:53.511Z,6.20
2023-10-15T01:06:01.430Z,6.45
2023-10-15T01:11:16.346Z,6.60
2023-10-15T01:16:20.909Z,7.82
2023-10-15T01:21:31.432Z,5.90
2023-10-15T01:26:41.214Z,7.10
2023-10-15T01:31:52.521Z,5.15
2023-10-15T01:36:58.582Z,5.57
2023-10-15T01:42:08.142Z,4.65
2023-10-15T01:47:13.448Z,6.63
2023-10-15T01:52:30.406Z,14.50
2023-10-15T01:57:37.923Z,26.38
2023-10-15T02:02:44.340Z,9.85
2023-10-15T02:07:48.732Z,5.57
2023-10-15T02:13:01.097Z,5.55
2023-10-15T02:18:07.136Z,4.85
2023-10-15T02:23:11.430Z,5.28
2023-10-15T02:28:27.569Z,5.55
2023-10-15T02:33:32.234Z,5.32
2023-10-15T02:38:39.232Z,5.18
2023-10-15T02:43:49.800Z,5.68
2023-10-15T02:48:55.069Z,5.60
2023-10-15T02:54:11.415Z,5.18
2023-10-15T02:59:18.667Z,10.13
2023-10-15T03:04:34.397Z,10.00
2023-10-15T03:09:39.123Z,5.68
2023-10-15T03:14:44.864Z,5.30
2023-10-15T03:19:49.572Z,5.03
2023-10-15T03:24:54.685Z,5.20
2023-10-15T03:30:00.182Z,5.75
2023-10-15T03:35:09.240Z,14.27
2023-10-15T03:40:32.329Z,16.48
2023-10-15T03:45:52.101Z,13.88
2023-10-15T03:50:56.679Z,8.07
2023-10-15T03:56:02.695Z,6.13
2023-10-15T04:01:17.401Z,5.18
2023-10-15T04:06:23.296Z,5.32
2023-10-15T04:11:31.245Z,6.60
2023-10-15T04:16:39.916Z,8.00
2023-10-15T04:21:45.992Z,14.32
2023-10-15T04:26:50.701Z,14.63
2023-10-15T04:32:01.950Z,18.88
2023-10-15T04:37:11.846Z,6.15
2023-10-15T04:42:22.417Z,6.10
2023-10-15T04:47:39.116Z,6.40
2023-10-15T04:52:43.433Z,10.38
2023-10-15T04:58:15.506Z,8.75
2023-10-15T05:03:21.367Z,12.45
2023-10-15T05:08:26.147Z,8.88
2023-10-15T05:13:32.750Z,7.85
2023-10-15T05:18:39.260Z,7.95
2023-10-15T05:23:43.718Z,7.63
2023-10-15T05:28:48.740Z,7.97
2023-10-15T05:33:55.244Z,6.88
2023-10-15T05:38:59.350Z,13.48
2023-10-15T05:44:03.982Z,10.40
2023-10-15T05:49:09.739Z,11.27
2023-10-15T05:54:13.922Z,10.77
2023-10-15T05:59:20.121Z,11.80
2023-10-15T06:04:25.841Z,9.98
2023-10-15T06:09:30.107Z,10.98
2023-10-15T06:14:34.353Z,13.18
2023-10-15T06:19:40.090Z,9.88
2023-10-15T06:24:47.951Z,9.55
2023-10-15T06:29:52.312Z,8.63
2023-10-15T06:34:58.050Z,13.02
2023-10-15T06:40:18.822Z,7.05
2023-10-15T06:45:25.321Z,7.05
2023-10-15T06:50:32.057Z,7.40
2023-10-15T06:55:36.661Z,6.20
2023-10-15T07:00:40.977Z,6.78
2023-10-15T07:05:46.980Z,5.93
2023-10-15T07:10:51.554Z,5.18
2023-10-15T07:15:56.624Z,5.75
2023-10-15T07:21:02.244Z,5.38
2023-10-15T07:26:06.389Z,5.13
2023-10-15T07:31:10.574Z,5.35
2023-10-15T07:36:16.138Z,4.68
2023-10-15T07:41:20.286Z,5.22
2023-10-15T07:46:24.506Z,3.80
2023-10-15T07:51:32.274Z,4.20
2023-10-15T07:56:40.004Z,4.05
2023-10-15T08:01:45.514Z,4.07
2023-10-15T08:06:51.195Z,4.30
2023-10-15T08:11:55.571Z,3.55
2023-10-15T08:17:00.499Z,3.30
2023-10-15T08:22:06.526Z,3.55
2023-10-15T08:27:11.148Z,3.78
2023-10-15T08:32:18.206Z,3.55
2023-10-15T08:37:23.995Z,4.07
2023-10-15T08:42:32.966Z,3.83
2023-10-15T08:47:38.079Z,3.55
2023-10-15T08:52:45.090Z,3.40
2023-10-15T08:57:49.718Z,3.60
2023-10-15T09:02:55.731Z,3.42
2023-10-15T09:08:08.626Z,3.65
2023-10-15T09:13:19.623Z,3.97
2023-10-15T09:18:27.418Z,3.88
2023-10-15T09:23:36.854Z,3.40
2023-10-15T09:28:41.657Z,4.35
2023-10-15T09:33:45.830Z,4.53
2023-10-15T09:38:54.548Z,4.85
2023-10-15T09:43:59.346Z,4.72
2023-10-15T09:49:05.841Z,4.53
2023-10-15T09:54:12.482Z,4.45
2023-10-15T09:59:17.182Z,4.50
2023-10-15T10:04:45.191Z,4.30
2023-10-15T10:10:38.741Z,4.57
2023-10-15T10:15:53.526Z,4.50
2023-10-15T10:20:57.941Z,6.35
2023-10-15T10:26:13.382Z,4.28
2023-10-15T10:31:20.447Z,4.10
2023-10-15T10:36:29.057Z,4.20
2023-10-15T10:41:38.524Z,4.03
2023-10-15T10:46:46.350Z,5.03
2023-10-15T10:52:06.382Z,4.97
2023-10-15T10:57:11.210Z,4.28
2023-10-15T11:02:17.504Z,3.95
2023-10-15T11:07:22.087Z,4.13
2023-10-15T11:12:29.090Z,4.75
2023-10-15T11:17:34.483Z,6.90
2023-10-15T11:22:43.842Z,4.35
2023-10-15T11:27:49.551Z,4.90
2023-10-15T11:32:56.422Z,3.78
2023-10-15T11:38:00.982Z,4.25
2023-10-15T11:43:06.221Z,3.92
2023-10-15T11:48:14.217Z,5.18
2023-10-15T11:53:19.031Z,4.55
2023-10-15T11:58:24.486Z,5.30
2023-10-15T12:03:30.755Z,4.20
2023-10-15T12:08:35.133Z,4.65
2023-10-15T12:13:43.244Z,4.15
2023-10-15T12:18:48.932Z,4.38
2023-10-15T12:23:53.108Z,4.80
2023-10-15T12:28:57.488Z,4.25
2023-10-15T12:34:05.989Z,4.00
2023-10-15T12:39:11.191Z,3.78
2023-10-15T12:44:15.613Z,3.28
2023-10-15T12:49:21.998Z,3.40
2023-10-15T12:54:26.522Z,3.25
2023-10-15T12:59:31.036Z,2.92
2023-10-15T13:04:36.721Z,2.60
2023-10-15T13:09:40.909Z,2.13
2023-10-15T13:14:46.272Z,3.00
2023-10-15T13:19:51.907Z,3.17
2023-10-15T13:24:56.034Z,3.50
2023-10-15T13:30:00.649Z,2.92
2023-10-15T13:35:06.848Z,3.47
2023-10-15T13:40:12.969Z,4.10
2023-10-15T13:45:19.561Z,3.20
2023-10-15T13:50:26.190Z,4.25
2023-10-15T13:55:32.812Z,4.13
2023-10-15T14:00:38.625Z,4.10
2023-10-15T14:05:44.662Z,4.20
2023-10-15T14:10:52.599Z,4.07
2023-10-15T14:15:57.110Z,4.30
2023-10-15T14:21:03.140Z,4.15
2023-10-15T14:26:07.765Z,4.03
2023-10-15T14:31:12.910Z,4.07
2023-10-15T14:36:18.811Z,3.83
2023-10-15T14:41:23.853Z,3.95
2023-10-15T14:46:28.113Z,4.20
2023-10-15T14:51:33.640Z,3.85
2023-10-15T14:56:37.825Z,4.18
2023-10-15T15:01:41.887Z,4.18
2023-10-15T15:06:47.540Z,4.55
2023-10-15T15:11:51.952Z,4.88
2023-10-15T15:16:56.099Z,5.05
2023-10-15T15:22:01.663Z,5.28
2023-10-15T15:27:05.961Z,6.53
2023-10-15T15:32:10.089Z,6.78
2023-10-15T15:37:16.199Z,6.93
2023-10-15T15:42:20.319Z,10.07
2023-10-15T15:47:24.665Z,23.40
2023-10-15T15:52:31.404Z,12.07
2023-10-15T15:57:35.433Z,8.88
2023-10-15T16:02:39.790Z,10.43
2023-10-15T16:07:48.676Z,12.25
2023-10-15T16:12:53.170Z,12.55
2023-10-15T16:17:57.941Z,8.48
2023-10-15T16:23:03.575Z,10.15
2023-10-15T16:28:08.444Z,15.70
2023-10-15T16:33:16.243Z,13.30
2023-10-15T16:38:23.469Z,8.50
2023-10-15T16:43:27.809Z,10.05
2023-10-15T16:48:33.734Z,5.68
2023-10-15T16:53:41.089Z,6.05
2023-10-15T16:58:48.427Z,8.48
2023-10-15T17:03:52.685Z,8.73
2023-10-15T17:09:00.722Z,10.88
2023-10-15T17:14:06.214Z,8.43
2023-10-15T17:19:11.611Z,10.65
2023-10-15T17:24:17.549Z,10.25
2023-10-15T17:29:22.537Z,9.82
2023-10-15T17:34:29.322Z,9.52
2023-10-15T17:39:35.634Z,8.45
2023-10-15T17:44:40.449Z,7.57
2023-10-15T17:49:44.803Z,7.03
2023-10-15T17:54:50.422Z,6.18
2023-10-15T17:59:54.652Z,7.25
2023-10-15T18:04:59.216Z,5.78
2023-10-15T18:10:04.980Z,7.57
2023-10-15T18:15:10.296Z,6.78
2023-10-15T18:20:16.354Z,8.82
2023-10-15T18:25:22.497Z,6.68
2023-10-15T18:30:28.119Z,6.97
2023-10-15T18:35:33.232Z,7.18
2023-10-15T18:40:38.941Z,6.38
2023-10-15T18:45:46.693Z,12.05
2023-10-15T18:50:52.368Z,6.85
2023-10-15T18:55:58.746Z,6.07
2023-10-15T19:01:03.070Z,5.50
2023-10-15T19:06:08.026Z,5.75
2023-10-15T19:11:15.632Z,5.45
2023-10-15T19:16:22.435Z,5.00
2023-10-15T19:21:27.135Z,5.65
2023-10-15T19:26:34.929Z,4.63
2023-10-15T19:31:40.135Z,5.33
2023-10-15T19:36:45.491Z,6.13
2023-10-15T19:41:52.487Z,4.78
2023-10-15T19:46:57.980Z,5.38
2023-10-15T19:52:02.427Z,6.43
2023-10-15T19:57:10.976Z,6.65
2023-10-15T20:02:16.920Z,9.45
2023-10-15T20:07:22.666Z,7.13
2023-10-15T20:12:28.242Z,6.68
2023-10-15T20:17:32.893Z,5.53
2023-10-15T20:22:37.976Z,6.65
2023-10-15T20:27:45.090Z,6.35
2023-10-15T20:32:55.465Z,6.68
2023-10-15T20:38:00.241Z,6.82
2023-10-15T20:43:06.137Z,7.78
2023-10-15T20:48:10.430Z,6.78
2023-10-15T20:53:15.014Z,6.70
2023-10-15T20:58:20.579Z,6.40
2023-10-15T21:03:27.237Z,7.95
2023-10-15T21:08:32.255Z,8.75
2023-10-15T21:13:37.724Z,9.40
2023-10-15T21:18:43.620Z,9.38
2023-10-15T21:23:48.107Z,8.30
2023-10-15T21:28:54.829Z,8.15
2023-10-15T21:34:01.541Z,9.30
2023-10-15T21:39:06.170Z,9.25
2023-10-15T21:44:11.760Z,9.27
2023-10-15T21:49:16.615Z,11.15
2023-10-15T21:54:21.034Z,11.15
2023-10-15T21:59:27.556Z,11.82
2023-10-15T22:04:31.712Z,12.93
2023-10-15T22:09:37.018Z,13.15
2023-10-15T22:14:46.904Z,14.70
2023-10-15T22:19:51.892Z,15.02
2023-10-15T22:24:56.007Z,16.70
2023-10-15T22:30:06.426Z,17.38
2023-10-15T22:35:11.926Z,16.55
2023-10-15T22:40:18.584Z,18.73
2023-10-15T22:45:27.382Z,18.98
2023-10-15T22:50:32.690Z,20.08
2023-10-15T22:55:37.424Z,18.70
2023-10-15T23:00:43.186Z,19.48
2023-10-15T23:05:47.845Z,18.52
2023-10-15T23:10:51.900Z,20.05
2023-10-15T23:15:59.310Z,18.27
2023-10-15T23:21:11.487Z,15.75
2023-10-15T23:26:16.532Z,15.52
2023-10-15T23:31:24.942Z,15.15
2023-10-15T23:36:33.952Z,15.37
2023-10-15T23:41:38.418Z,15.00
2023-10-15T23:46:43.868Z,12.90
2023-10-15T23:51:49.225Z,12.05
2023-10-15T23:56:54.572Z,11.95
